This is the latest recevied weather packets stored in our database for station/object BM1CKC-10. If no packets are shown the sender has not sent any weather packets the latest 10 day(s).
| Time | Temp. | Humidity | Pressure | Rain* | Wind** | Luminosity | Snow |
|---|---|---|---|---|---|---|---|
| 1777604998 | 26.67° C | 51% | 1011.3 hPa | - | - | - | - |
| 1777603797 | 27.78° C | 50% | 1011.3 hPa | - | - | - | - |
| 1777602598 | 27.22° C | 51% | 1011.4 hPa | - | - | - | - |
| 1777601398 | 27.22° C | 51% | 1011.5 hPa | - | - | - | - |
| 1777585804 | 25° C | 63% | 1010.4 hPa | - | - | - | - |
| 1777584599 | 24.44° C | 64% | 1010.2 hPa | - | - | - | - |
| 1777583399 | 25° C | 61% | 1010.2 hPa | - | - | - | - |
| 1777580998 | 25° C | 64% | 1010.2 hPa | - | - | - | - |
| 1777579798 | 24.44° C | 64% | 1010 hPa | - | - | - | - |
| 1777578599 | 25° C | 64% | 1010 hPa | - | - | - | - |
| 1777577398 | 25° C | 61% | 1010 hPa | - | - | - | - |
| 1777573798 | 25° C | 62% | 1010 hPa | - | - | - | - |
| 1777570199 | 24.44° C | 62% | 1010.3 hPa | - | - | - | - |
| 1777568998 | 25° C | 59% | 1010.3 hPa | - | - | - | - |
| 1777567798 | 25° C | 62% | 1010.4 hPa | - | - | - | - |
| 1777559398 | 27.78° C | 55% | 1011.2 hPa | - | - | - | - |
| 1777558198 | 27.22° C | 56% | 1011.2 hPa | - | - | - | - |
| 1777553398 | 27.78° C | 56% | 1010.9 hPa | - | - | - | - |
| 1777552198 | 27.78° C | 56% | 1010.8 hPa | - | - | - | - |
| 1777550998 | 27.78° C | 56% | 1010.6 hPa | - | - | - | - |
| 1777547398 | 27.78° C | 56% | 1010.1 hPa | - | - | - | - |
| 1777546198 | 27.78° C | 56% | 1010 hPa | - | - | - | - |
| 1777544997 | 27.78° C | 56% | 1009.9 hPa | - | - | - | - |
| 1777543798 | 27.78° C | 56% | 1009.9 hPa | - | - | - | - |
| 1777542598 | 27.78° C | 55% | 1009.6 hPa | - | - | - | - |
* Rain since midnight (hover to see other rain measurements)
** Current wind speed in m/s (hover to see current wind gust speed)